createdAt,value
2022-08-01T00:03:49.488Z,3.60
2022-08-01T00:09:11.440Z,2.85
2022-08-01T00:14:45.787Z,3.35
2022-08-01T00:20:10.175Z,3.65
2022-08-01T00:25:33.988Z,3.20
2022-08-01T00:30:56.523Z,4.82
2022-08-01T00:36:18.383Z,3.30
2022-08-01T00:41:40.197Z,3.47
2022-08-01T00:47:02.567Z,3.40
2022-08-01T00:52:24.518Z,4.20
2022-08-01T00:58:02.726Z,3.22
2022-08-01T01:03:56.373Z,3.35
2022-08-01T01:09:33.364Z,2.58
2022-08-01T01:15:19.629Z,3.13
2022-08-01T01:20:49.120Z,3.05
2022-08-01T01:26:37.245Z,3.10
2022-08-01T01:32:07.445Z,3.30
2022-08-01T01:37:32.873Z,3.65
2022-08-01T01:42:57.603Z,3.95
2022-08-01T01:48:21.721Z,4.00
2022-08-01T01:53:45.860Z,4.25
2022-08-01T01:59:07.822Z,3.95
2022-08-01T02:04:30.563Z,3.42
2022-08-01T02:09:53.424Z,3.28
2022-08-01T02:15:16.549Z,3.13
2022-08-01T02:20:39.131Z,3.40
2022-08-01T02:26:10.470Z,3.80
2022-08-01T02:31:39.186Z,4.07
2022-08-01T02:37:02.449Z,3.30
2022-08-01T02:42:27.493Z,2.80
2022-08-01T02:47:52.690Z,2.70
2022-08-01T02:53:17.595Z,3.30
2022-08-01T02:58:40.758Z,2.55
2022-08-01T03:04:05.480Z,3.20
2022-08-01T03:09:29.445Z,2.67
2022-08-01T03:14:54.534Z,2.47
2022-08-01T03:20:19.138Z,2.70
2022-08-01T03:25:44.183Z,6.80
2022-08-01T03:31:06.294Z,4.18
2022-08-01T03:36:30.981Z,3.42
2022-08-01T03:41:57.461Z,3.65
2022-08-01T03:47:22.751Z,4.20
2022-08-01T03:52:47.495Z,3.35
2022-08-01T03:58:10.702Z,3.67
2022-08-01T04:03:33.579Z,2.83
2022-08-01T04:09:03.989Z,3.50
2022-08-01T04:14:25.797Z,2.80
2022-08-01T04:19:47.649Z,3.20
2022-08-01T04:25:18.525Z,3.95
2022-08-01T04:30:40.799Z,4.30
2022-08-01T04:36:05.229Z,4.10
2022-08-01T04:41:27.539Z,4.30
2022-08-01T04:46:50.529Z,5.15
2022-08-01T04:52:18.068Z,5.20
2022-08-01T04:57:44.852Z,5.57
2022-08-01T05:03:06.772Z,6.05
2022-08-01T05:08:28.639Z,5.53
2022-08-01T05:13:50.463Z,5.15
2022-08-01T05:19:13.201Z,5.65
2022-08-01T05:24:37.141Z,4.45
2022-08-01T05:30:01.929Z,4.20
2022-08-01T05:35:23.792Z,4.53
2022-08-01T05:41:05.640Z,5.15
2022-08-01T05:46:27.677Z,6.07
2022-08-01T05:51:49.619Z,6.90
2022-08-01T05:57:11.462Z,7.72
2022-08-01T06:02:34.402Z,5.25
2022-08-01T06:07:56.265Z,4.60
2022-08-01T06:13:18.715Z,5.25
2022-08-01T06:18:40.539Z,4.68
2022-08-01T06:24:02.384Z,5.18
2022-08-01T06:29:24.266Z,3.88
2022-08-01T06:34:46.134Z,4.03
2022-08-01T06:40:16.224Z,3.72
2022-08-01T06:45:40.256Z,2.63
2022-08-01T06:51:02.077Z,2.33
2022-08-01T06:56:23.936Z,2.30
2022-08-01T07:01:45.737Z,1.73
2022-08-01T07:07:08.560Z,1.75
2022-08-01T07:17:52.180Z,1.67
2022-08-01T07:23:14.125Z,1.55
2022-08-01T07:28:36.280Z,1.70
2022-08-01T07:34:06.049Z,2.00
2022-08-01T07:39:27.840Z,1.40
2022-08-01T07:44:49.687Z,1.75
2022-08-01T07:50:11.931Z,1.80
2022-08-01T07:55:33.836Z,1.20
2022-08-01T08:00:55.649Z,1.85
2022-08-01T08:06:17.488Z,1.50
2022-08-01T08:11:39.332Z,1.42
2022-08-01T08:17:01.846Z,1.30
2022-08-01T08:22:24.139Z,1.33
2022-08-01T08:27:46.953Z,1.35
2022-08-01T08:33:13.652Z,1.20
2022-08-01T08:38:35.687Z,1.55
2022-08-01T08:43:58.021Z,1.20
2022-08-01T08:49:26.795Z,3.13
2022-08-01T08:54:50.473Z,1.30
2022-08-01T09:05:38.828Z,2.10
2022-08-01T09:11:01.303Z,1.70
2022-08-01T09:16:23.121Z,1.05
2022-08-01T09:21:59.664Z,1.73
2022-08-01T09:27:22.895Z,1.88
2022-08-01T09:33:18.109Z,1.60
2022-08-01T09:38:47.785Z,1.58
2022-08-01T09:44:13.505Z,1.52
2022-08-01T09:49:49.811Z,1.88
2022-08-01T09:55:13.569Z,1.50
2022-08-01T10:00:45.435Z,1.25
2022-08-01T10:06:24.778Z,1.23
2022-08-01T10:11:47.055Z,1.70
2022-08-01T10:17:18.359Z,1.23
2022-08-01T10:22:43.679Z,1.38
2022-08-01T10:28:23.782Z,1.35
2022-08-01T10:33:50.377Z,1.63
2022-08-01T10:39:14.947Z,1.65
2022-08-01T10:44:42.442Z,1.65
2022-08-01T10:50:26.175Z,1.10
2022-08-01T10:55:51.859Z,0.90
2022-08-01T11:01:21.497Z,1.00
2022-08-01T11:06:51.507Z,1.70
2022-08-01T11:12:24.907Z,1.30
2022-08-01T11:17:47.448Z,1.55
2022-08-01T11:23:09.395Z,1.60
2022-08-01T11:28:33.248Z,1.73
2022-08-01T11:34:03.040Z,1.55
2022-08-01T11:39:25.341Z,1.70
2022-08-01T11:44:51.894Z,1.63
2022-08-01T11:55:55.011Z,1.73
2022-08-01T12:01:17.945Z,1.73
2022-08-01T12:06:40.679Z,1.85
2022-08-01T12:12:03.706Z,1.67
2022-08-01T12:17:58.869Z,1.75
2022-08-01T12:23:21.164Z,1.65
2022-08-01T12:28:43.132Z,1.90
2022-08-01T12:34:27.758Z,1.88
2022-08-01T12:39:49.911Z,1.63
2022-08-01T12:45:25.018Z,2.22
2022-08-01T12:50:49.506Z,1.60
2022-08-01T12:56:11.840Z,2.00
2022-08-01T13:01:34.096Z,2.17
2022-08-01T13:06:56.168Z,1.95
2022-08-01T13:12:18.412Z,5.25
2022-08-01T13:17:40.280Z,1.95
2022-08-01T13:24:01.317Z,1.83
2022-08-01T13:29:09.046Z,2.03
2022-08-01T13:34:39.926Z,1.75
2022-08-01T13:40:01.971Z,2.20
2022-08-01T13:45:24.391Z,1.83
2022-08-01T13:51:07.350Z,1.83
2022-08-01T13:56:30.340Z,2.40
2022-08-01T14:01:52.491Z,3.15
2022-08-01T14:07:15.053Z,2.17
2022-08-01T14:12:37.099Z,2.22
2022-08-01T14:17:59.578Z,2.60
2022-08-01T14:23:21.524Z,2.25
2022-08-01T14:28:44.447Z,2.40
2022-08-01T14:34:06.327Z,2.92
2022-08-01T14:39:28.154Z,2.40
2022-08-01T14:44:50.253Z,3.22
2022-08-01T14:50:14.320Z,2.30
2022-08-01T14:55:41.763Z,2.53
2022-08-01T15:01:04.297Z,2.28
2022-08-01T15:06:26.230Z,3.20
2022-08-01T15:11:48.032Z,2.13
2022-08-01T15:17:09.882Z,7.47
2022-08-01T15:22:32.311Z,5.93
2022-08-01T15:27:54.158Z,3.35
2022-08-01T15:33:15.999Z,2.60
2022-08-01T15:38:37.852Z,3.00
2022-08-01T15:43:59.697Z,2.58
2022-08-01T15:49:21.611Z,3.15
2022-08-01T15:54:43.513Z,3.15
2022-08-01T16:00:06.327Z,4.38
2022-08-01T16:05:28.164Z,5.63
2022-08-01T16:10:50.078Z,4.50
2022-08-01T16:16:12.500Z,2.78
2022-08-01T16:21:34.497Z,3.03
2022-08-01T16:26:56.995Z,3.00
2022-08-01T16:32:27.268Z,2.45
2022-08-01T16:37:56.100Z,2.50
2022-08-01T16:43:19.681Z,2.15
2022-08-01T16:48:41.587Z,1.90
2022-08-01T16:54:03.763Z,1.83
2022-08-01T16:59:45.645Z,2.30
2022-08-01T17:05:12.469Z,1.95
2022-08-01T17:10:35.613Z,3.70
2022-08-01T17:15:57.519Z,3.67
2022-08-01T17:21:19.436Z,2.95
2022-08-01T17:26:41.340Z,2.90
2022-08-01T17:32:03.321Z,2.90
2022-08-01T17:37:25.227Z,2.40
2022-08-01T17:42:47.066Z,3.13
2022-08-01T17:48:09.573Z,3.17
2022-08-01T17:53:31.428Z,3.03
2022-08-01T17:58:53.764Z,3.20
2022-08-01T18:04:15.633Z,2.65
2022-08-01T18:09:44.233Z,2.53
2022-08-01T18:15:08.180Z,2.95
2022-08-01T18:20:30.124Z,3.30
2022-08-01T18:25:52.032Z,3.65
2022-08-01T18:31:15.098Z,4.03
2022-08-01T18:36:36.946Z,2.72
2022-08-01T18:42:02.324Z,2.97
2022-08-01T18:47:24.179Z,2.70
2022-08-01T18:52:46.025Z,3.30
2022-08-01T18:58:07.834Z,3.35
2022-08-01T19:03:29.694Z,2.45
2022-08-01T19:08:55.699Z,2.75
2022-08-01T19:14:18.902Z,3.63
2022-08-01T19:19:40.712Z,3.70
2022-08-01T19:25:03.151Z,2.92
2022-08-01T19:30:25.212Z,2.28
2022-08-01T19:35:52.156Z,2.90
2022-08-01T19:41:18.347Z,2.35
2022-08-01T19:46:41.051Z,2.72
2022-08-01T19:52:03.986Z,3.15
2022-08-01T19:57:26.628Z,2.85
2022-08-01T20:03:07.971Z,3.35
2022-08-01T20:08:32.300Z,2.67
2022-08-01T20:13:56.113Z,2.83
2022-08-01T20:19:19.180Z,3.22
2022-08-01T20:24:43.576Z,3.15
2022-08-01T20:30:06.747Z,4.75
2022-08-01T20:35:53.494Z,17.08
2022-08-01T20:41:11.281Z,3.92
2022-08-01T20:46:33.839Z,3.20
2022-08-01T20:51:56.004Z,3.58
2022-08-01T20:57:27.888Z,3.17
2022-08-01T21:03:11.815Z,3.65
2022-08-01T21:08:43.738Z,3.70
2022-08-01T21:14:10.674Z,4.22
2022-08-01T21:19:34.558Z,4.05
2022-08-01T21:25:03.314Z,4.72
2022-08-01T21:30:27.147Z,6.10
2022-08-01T21:35:49.299Z,4.93
2022-08-01T21:41:12.068Z,4.43
2022-08-01T21:46:34.232Z,5.07
2022-08-01T21:52:11.557Z,4.45
2022-08-01T21:58:01.274Z,4.32
2022-08-01T22:03:36.405Z,4.05
2022-08-01T22:09:04.735Z,4.40
2022-08-01T22:14:29.111Z,5.07
2022-08-01T22:19:53.813Z,4.75
2022-08-01T22:25:15.819Z,4.72
2022-08-01T22:30:41.783Z,4.30
2022-08-01T22:36:06.019Z,4.50
2022-08-01T22:41:30.980Z,4.93
2022-08-01T22:47:25.619Z,4.70
2022-08-01T22:53:12.722Z,4.68
2022-08-01T22:58:34.903Z,4.32
2022-08-01T23:03:59.219Z,5.07
2022-08-01T23:09:22.197Z,4.63
2022-08-01T23:15:01.899Z,4.75
2022-08-01T23:20:24.046Z,5.68
2022-08-01T23:25:48.147Z,5.30
2022-08-01T23:31:11.362Z,5.45
2022-08-01T23:36:33.256Z,5.22
2022-08-01T23:41:57.772Z,4.93
2022-08-01T23:47:29.704Z,5.13
2022-08-01T23:52:52.959Z,5.38
2022-08-01T23:58:14.794Z,5.13
